Time;durP1;ratioP1;P1;durP2;ratioP2;P2;SDS_P1;SDS_P2;PMS_P1;PMS_P2;Temp;Humidity;BMP_temperature;BMP_pressure;BME280_temperature;BME280_humidity;BME280_pressure;Samples;Min_cycle;Max_cycle;Signal;HPM_P1;HPM_P2
2022/07/25 00:02:36;;;;;;;10.57;8.05;;;22.90;99.90;;;;;;5052608;28;20436;-79
2022/07/25 00:05:20;;;;;;;8.75;7.72;;;22.90;99.90;;;;;;5066908;28;20435;-80
2022/07/25 00:08:04;;;;;;;8.25;7.45;;;22.90;99.90;;;;;;5069395;28;20433;-79
2022/07/25 00:10:48;;;;;;;10.05;7.75;;;22.80;99.90;;;;;;5064251;28;20485;-77
2022/07/25 00:13:33;;;;;;;9.23;7.50;;;22.80;99.90;;;;;;5061322;28;20485;-77
2022/07/25 00:16:17;;;;;;;10.52;7.82;;;22.80;99.90;;;;;;5054454;28;20958;-77
2022/07/25 00:19:02;;;;;;;8.37;7.27;;;22.70;99.90;;;;;;5062406;28;20423;-77
2022/07/25 00:21:46;;;;;;;7.88;7.13;;;22.80;99.90;;;;;;5059825;28;20416;-75
2022/07/25 00:24:31;;;;;;;8.30;6.97;;;22.70;99.90;;;;;;5068710;28;20431;-78
2022/07/25 00:27:16;;;;;;;8.00;6.60;;;22.70;99.90;;;;;;5054573;28;20407;-77
2022/07/25 00:30:00;;;;;;;7.60;6.80;;;22.70;99.90;;;;;;5062822;28;20443;-77
2022/07/25 00:32:44;;;;;;;8.03;7.23;;;22.60;99.90;;;;;;5052319;28;20468;-77
2022/07/25 00:35:29;;;;;;;8.10;6.80;;;22.60;99.90;;;;;;5057612;28;20416;-77
2022/07/25 00:38:13;;;;;;;7.80;7.00;;;22.60;99.90;;;;;;5056979;28;20418;-78
2022/07/25 00:40:57;;;;;;;8.75;6.93;;;22.60;99.90;;;;;;5057882;28;20474;-78
2022/07/25 00:43:43;;;;;;;8.00;7.00;;;22.60;99.90;;;;;;5053388;28;20434;-77
2022/07/25 00:46:27;;;;;;;7.00;6.30;;;22.50;99.90;;;;;;5055380;28;20383;-77
2022/07/25 00:49:11;;;;;;;7.28;6.50;;;22.50;99.90;;;;;;5056350;28;20441;-77
2022/07/25 00:51:56;;;;;;;8.77;6.80;;;22.50;99.90;;;;;;5056476;28;20424;-77
2022/07/25 00:54:40;;;;;;;8.57;7.27;;;22.50;99.90;;;;;;5053626;28;20459;-78
2022/07/25 00:57:24;;;;;;;7.93;6.60;;;22.50;99.90;;;;;;5057405;28;20442;-78
2022/07/25 01:00:11;;;;;;;7.85;6.70;;;22.50;99.90;;;;;;5063631;28;20418;-77
2022/07/25 01:02:55;;;;;;;7.55;6.85;;;22.40;99.90;;;;;;5058046;28;20464;-77
2022/07/25 01:05:39;;;;;;;8.25;6.75;;;22.50;99.90;;;;;;5055994;28;20504;-78
2022/07/25 01:08:24;;;;;;;8.13;6.82;;;22.40;99.90;;;;;;5058491;28;20400;-78
2022/07/25 01:11:09;;;;;;;8.15;6.70;;;22.40;99.90;;;;;;5058790;28;20420;-77
2022/07/25 01:13:53;;;;;;;7.50;6.55;;;22.40;99.90;;;;;;5062927;28;20761;-78
2022/07/25 01:16:39;;;;;;;7.05;6.20;;;22.40;99.90;;;;;;5052446;28;20407;-77
2022/07/25 01:19:23;;;;;;;7.40;6.40;;;22.40;99.90;;;;;;5051490;28;20404;-79
2022/07/25 01:22:07;;;;;;;7.07;6.30;;;22.40;99.90;;;;;;5055171;28;20430;-78
2022/07/25 01:24:52;;;;;;;6.95;6.18;;;22.40;99.90;;;;;;5056354;28;20388;-79
2022/07/25 01:27:36;;;;;;;7.00;6.30;;;22.30;99.90;;;;;;5056374;28;20437;-77
2022/07/25 01:30:21;;;;;;;6.82;6.13;;;22.30;99.90;;;;;;5056779;28;20387;-78
2022/07/25 01:33:05;;;;;;;6.88;6.28;;;22.30;99.90;;;;;;5054430;28;20441;-78
2022/07/25 01:35:49;;;;;;;7.47;6.67;;;22.20;99.90;;;;;;5055342;28;20408;-78
2022/07/25 01:38:34;;;;;;;9.20;6.50;;;22.20;99.90;;;;;;5058204;28;20398;-77
2022/07/25 01:41:18;;;;;;;8.98;6.55;;;22.10;99.90;;;;;;5050474;28;20452;-78
2022/07/25 01:44:03;;;;;;;9.87;6.57;;;22.10;99.90;;;;;;5063986;28;20461;-78
2022/07/25 01:46:47;;;;;;;9.48;6.60;;;22.10;99.90;;;;;;5050464;28;20473;-77
2022/07/25 01:49:31;;;;;;;7.20;6.50;;;22.00;99.90;;;;;;5046432;28;20406;-78
2022/07/25 01:52:15;;;;;;;7.53;6.82;;;21.90;99.90;;;;;;5051009;28;20398;-78
2022/07/25 01:54:59;;;;;;;8.85;6.72;;;21.90;99.90;;;;;;5059023;28;20459;-78
2022/07/25 01:57:43;;;;;;;7.10;6.38;;;21.90;99.90;;;;;;5063600;28;20823;-78
2022/07/25 02:00:27;;;;;;;8.18;6.60;;;21.90;99.90;;;;;;5051601;28;20400;-78
2022/07/25 02:03:30;;;;;;;7.32;6.63;;;21.80;99.90;;;;;;5046453;28;20407;-80
2022/07/25 02:06:14;;;;;;;9.80;7.20;;;21.80;99.90;;;;;;5054445;28;20396;-78
2022/07/25 02:08:58;;;;;;;7.68;6.97;;;21.70;99.90;;;;;;5062100;28;20465;-78
2022/07/25 02:11:42;;;;;;;8.55;6.88;;;21.80;99.90;;;;;;5067021;28;20949;-78
2022/07/25 02:14:26;;;;;;;8.75;7.75;;;21.70;99.90;;;;;;5051826;28;20466;-77
2022/07/25 02:17:11;;;;;;;7.90;7.10;;;21.60;99.90;;;;;;5057417;28;20382;-78
2022/07/25 02:19:55;;;;;;;8.82;7.50;;;21.60;99.90;;;;;;5059507;28;20395;-78
2022/07/25 02:22:39;;;;;;;9.90;7.90;;;21.60;99.90;;;;;;5051064;28;20392;-77
2022/07/25 02:25:23;;;;;;;8.57;7.63;;;21.50;99.90;;;;;;5052379;28;20390;-78
2022/07/25 02:28:07;;;;;;;8.57;7.53;;;21.50;99.90;;;;;;5052227;28;20442;-79
2022/07/25 02:30:51;;;;;;;9.18;7.80;;;21.50;99.90;;;;;;5053600;28;20404;-78
2022/07/25 02:33:36;;;;;;;10.40;8.02;;;21.40;99.90;;;;;;5062670;28;20390;-78
2022/07/25 02:36:20;;;;;;;9.48;7.90;;;21.40;99.90;;;;;;5054297;28;20412;-78
2022/07/25 02:39:04;;;;;;;8.90;8.07;;;21.40;99.90;;;;;;5061960;28;20398;-76
2022/07/25 02:41:48;;;;;;;9.18;8.27;;;21.40;99.90;;;;;;5055097;28;20396;-78
2022/07/25 02:44:32;;;;;;;9.10;8.20;;;21.30;99.90;;;;;;5055367;28;20384;-78
2022/07/25 02:47:16;;;;;;;8.40;7.60;;;21.20;99.90;;;;;;5041755;28;20396;-78
2022/07/25 02:50:01;;;;;;;8.70;7.90;;;21.20;99.90;;;;;;5054293;28;20442;-78
2022/07/25 02:52:44;;;;;;;8.93;8.13;;;21.20;99.90;;;;;;5055568;28;20386;-78
2022/07/25 02:55:29;;;;;;;9.65;8.65;;;21.20;99.90;;;;;;5055025;28;20438;-78
2022/07/25 02:58:13;;;;;;;9.53;8.60;;;21.20;99.90;;;;;;5063488;28;20406;-78
2022/07/25 03:00:58;;;;;;;9.98;8.38;;;21.10;99.90;;;;;;5058116;28;20518;-77
2022/07/25 03:03:42;;;;;;;9.32;8.45;;;21.10;99.90;;;;;;5054521;28;20404;-78
2022/07/25 03:06:26;;;;;;;10.07;8.77;;;21.10;99.90;;;;;;5063698;28;20512;-76
2022/07/25 03:09:10;;;;;;;9.38;8.48;;;21.00;99.90;;;;;;5061092;28;20386;-77
2022/07/25 03:11:54;;;;;;;10.10;8.20;;;21.00;99.90;;;;;;5050593;28;20743;-78
2022/07/25 03:14:38;;;;;;;9.53;8.57;;;21.00;99.90;;;;;;5057194;28;20414;-78
2022/07/25 03:17:22;;;;;;;9.27;8.40;;;20.90;99.90;;;;;;5061921;28;20435;-78
2022/07/25 03:20:08;;;;;;;10.20;8.45;;;20.90;99.90;;;;;;5056641;28;20767;-78
2022/07/25 03:22:52;;;;;;;10.23;8.57;;;20.80;99.90;;;;;;5053678;28;20385;-78
2022/07/25 03:25:36;;;;;;;11.05;7.90;;;20.90;99.90;;;;;;5068901;28;20871;-78
2022/07/25 03:28:20;;;;;;;9.30;8.20;;;20.80;99.90;;;;;;5057892;28;20414;-78
2022/07/25 03:31:04;;;;;;;10.68;8.23;;;20.80;99.90;;;;;;5052255;28;20397;-78
2022/07/25 03:33:48;;;;;;;9.80;8.80;;;20.80;99.90;;;;;;5058455;28;20400;-78
2022/07/25 03:36:32;;;;;;;9.73;7.90;;;20.80;99.90;;;;;;5059320;28;20411;-78
2022/07/25 03:39:17;;;;;;;9.57;7.70;;;20.70;99.90;;;;;;5053927;28;20436;-78
2022/07/25 03:42:01;;;;;;;10.63;8.07;;;20.70;99.90;;;;;;5063991;28;20408;-78
2022/07/25 03:44:45;;;;;;;8.88;7.97;;;20.70;99.90;;;;;;5059342;28;20519;-78
2022/07/25 03:47:29;;;;;;;9.38;8.30;;;20.70;99.90;;;;;;5055708;28;20395;-79
2022/07/25 03:50:13;;;;;;;8.43;7.60;;;20.70;99.90;;;;;;5053880;28;20910;-80
2022/07/25 03:52:57;;;;;;;8.98;7.60;;;20.70;99.90;;;;;;5060736;28;20435;-78
2022/07/25 03:55:41;;;;;;;9.18;7.70;;;20.70;99.90;;;;;;5068317;28;20442;-78
2022/07/25 03:58:25;;;;;;;8.80;7.90;;;20.70;99.90;;;;;;5058535;28;20455;-80
2022/07/25 04:01:09;;;;;;;8.57;7.55;;;20.70;99.90;;;;;;5061143;28;20441;-78
2022/07/25 04:03:54;;;;;;;8.40;7.50;;;20.70;99.90;;;;;;5053649;28;20984;-78
2022/07/25 04:06:39;;;;;;;8.80;7.13;;;20.70;99.90;;;;;;5058646;28;20558;-78
2022/07/25 04:09:23;;;;;;;9.35;7.80;;;20.70;99.90;;;;;;5060356;28;20463;-78
2022/07/25 04:12:07;;;;;;;8.82;7.47;;;20.70;99.90;;;;;;5062598;28;20422;-78
2022/07/25 04:14:52;;;;;;;9.57;7.75;;;20.70;99.90;;;;;;5053670;28;20413;-77
2022/07/25 04:17:36;;;;;;;8.32;7.53;;;20.70;99.90;;;;;;5056421;28;20492;-79
2022/07/25 04:20:20;;;;;;;10.38;7.43;;;20.70;99.90;;;;;;5054526;28;20450;-78
2022/07/25 04:23:04;;;;;;;8.50;7.57;;;20.70;99.90;;;;;;5060895;28;20380;-79
2022/07/25 04:25:48;;;;;;;8.93;7.90;;;20.70;99.90;;;;;;5055767;28;20421;-78
2022/07/25 04:28:33;;;;;;;9.25;7.30;;;20.70;99.90;;;;;;5065404;28;20387;-78
2022/07/25 04:31:18;;;;;;;9.43;7.93;;;20.70;99.90;;;;;;5061602;28;20394;-78
2022/07/25 04:34:02;;;;;;;10.67;7.90;;;20.70;99.90;;;;;;5063667;28;20449;-76
2022/07/25 04:36:46;;;;;;;11.67;7.60;;;20.70;99.90;;;;;;5053202;28;20738;-76
2022/07/25 04:39:30;;;;;;;10.70;8.03;;;20.80;99.90;;;;;;5060415;28;20447;-78
2022/07/25 04:42:15;;;;;;;8.80;7.50;;;20.80;99.90;;;;;;5058524;28;20510;-78
2022/07/25 04:44:59;;;;;;;9.57;7.82;;;20.80;99.90;;;;;;5064616;28;20412;-77
2022/07/25 04:47:43;;;;;;;10.43;7.68;;;20.80;99.90;;;;;;5050599;28;20413;-79
2022/07/25 04:50:28;;;;;;;11.40;7.55;;;20.80;99.90;;;;;;5049714;28;20400;-78
2022/07/25 04:53:12;;;;;;;7.80;7.10;;;20.70;99.90;;;;;;5059698;28;20387;-77
2022/07/25 04:55:56;;;;;;;10.65;8.02;;;20.80;99.90;;;;;;5058960;28;20416;-78
2022/07/25 04:58:40;;;;;;;12.55;7.88;;;20.70;99.90;;;;;;5057746;28;20588;-78
2022/07/25 05:01:24;;;;;;;9.63;7.35;;;20.70;99.90;;;;;;5049670;28;20387;-78
2022/07/25 05:04:08;;;;;;;9.57;7.55;;;20.70;99.90;;;;;;5055618;28;20382;-77
2022/07/25 05:06:52;;;;;;;9.90;8.10;;;20.80;99.90;;;;;;5051339;28;20431;-78
2022/07/25 05:09:36;;;;;;;10.27;8.02;;;20.80;99.90;;;;;;5063440;28;20403;-78
2022/07/25 05:12:20;;;;;;;8.98;8.07;;;20.90;99.90;;;;;;5047985;28;20386;-78
2022/07/25 05:15:05;;;;;;;8.88;7.30;;;20.90;99.90;;;;;;5061722;28;20411;-78
2022/07/25 05:17:49;;;;;;;9.30;7.53;;;20.90;99.90;;;;;;5052633;28;20465;-77
2022/07/25 05:20:34;;;;;;;11.85;7.50;;;21.00;99.90;;;;;;5047762;28;20502;-78
2022/07/25 05:23:18;;;;;;;8.93;7.28;;;21.00;99.90;;;;;;5043997;28;20456;-78
2022/07/25 05:26:02;;;;;;;9.55;7.60;;;21.00;99.90;;;;;;5057260;28;20434;-78
2022/07/25 05:28:46;;;;;;;10.15;7.68;;;21.00;99.90;;;;;;5053110;28;20965;-78
2022/07/25 05:31:30;;;;;;;10.57;8.35;;;21.10;99.90;;;;;;5052223;28;20455;-78
2022/07/25 05:34:14;;;;;;;10.48;7.88;;;21.10;99.90;;;;;;5047215;28;20403;-78
2022/07/25 05:36:58;;;;;;;10.30;8.30;;;21.20;99.90;;;;;;5055351;28;20392;-78
2022/07/25 05:39:42;;;;;;;12.38;8.30;;;21.20;99.90;;;;;;5051741;28;20492;-77
2022/07/25 05:42:26;;;;;;;11.00;7.63;;;21.20;99.90;;;;;;5045159;28;20404;-78
2022/07/25 05:45:10;;;;;;;14.23;7.70;;;21.30;99.90;;;;;;5049111;28;20460;-78
2022/07/25 05:47:55;;;;;;;15.50;8.10;;;21.30;99.90;;;;;;5048902;28;20408;-78
2022/07/25 05:50:40;;;;;;;11.23;7.95;;;21.40;99.90;;;;;;5040539;28;20395;-78
2022/07/25 05:53:24;;;;;;;15.30;7.43;;;21.50;99.90;;;;;;5053373;28;20447;-78
2022/07/25 05:56:09;;;;;;;14.88;7.88;;;21.60;99.90;;;;;;5047882;28;20423;-78
2022/07/25 05:58:55;;;;;;;11.15;7.75;;;21.60;99.90;;;;;;5054635;28;20426;-78
2022/07/25 06:01:39;;;;;;;13.47;7.90;;;21.70;99.90;;;;;;5054646;28;20383;-78
2022/07/25 06:04:23;;;;;;;11.98;7.43;;;21.90;99.90;;;;;;5050254;28;20594;-78
2022/07/25 06:07:07;;;;;;;15.27;7.93;;;22.00;99.90;;;;;;5055276;28;20442;-78
2022/07/25 06:09:51;;;;;;;13.00;7.53;;;22.10;99.90;;;;;;5050332;28;20380;-78
2022/07/25 06:12:36;;;;;;;12.60;7.20;;;22.20;99.90;;;;;;5039146;28;20411;-78
2022/07/25 06:15:20;;;;;;;12.63;7.47;;;22.40;99.90;;;;;;5047073;28;20506;-78
2022/07/25 06:18:04;;;;;;;11.55;7.30;;;22.50;99.90;;;;;;5053478;28;20445;-78
2022/07/25 06:20:48;;;;;;;9.52;7.03;;;22.70;99.90;;;;;;5053439;28;20792;-79
2022/07/25 06:23:32;;;;;;;10.45;7.53;;;22.80;99.90;;;;;;5052843;28;20453;-79
2022/07/25 06:26:16;;;;;;;8.68;7.22;;;22.90;99.90;;;;;;5051212;28;20383;-79
2022/07/25 06:29:00;;;;;;;8.35;6.90;;;23.00;99.90;;;;;;5056419;28;20431;-78
2022/07/25 06:31:44;;;;;;;10.07;6.93;;;23.00;99.90;;;;;;5058875;28;20400;-79
2022/07/25 06:34:28;;;;;;;8.80;6.70;;;23.10;99.90;;;;;;5051801;28;20428;-79
2022/07/25 06:37:12;;;;;;;8.68;6.53;;;23.20;99.90;;;;;;5049803;28;20513;-78
2022/07/25 06:39:56;;;;;;;11.30;6.80;;;23.30;99.90;;;;;;5044879;28;20396;-79
2022/07/25 06:42:45;;;;;;;9.87;6.77;;;23.40;99.90;;;;;;5052943;28;20403;-79
2022/07/25 06:45:29;;;;;;;9.10;7.30;;;23.50;99.90;;;;;;5051541;28;20383;-78
2022/07/25 06:48:14;;;;;;;9.20;6.95;;;23.50;99.90;;;;;;5049651;28;20402;-79
2022/07/25 06:50:58;;;;;;;12.90;6.85;;;23.60;99.90;;;;;;5057463;28;20452;-77
2022/07/25 06:53:42;;;;;;;10.33;6.83;;;23.70;99.90;;;;;;5056181;28;20439;-78
2022/07/25 06:56:30;;;;;;;11.68;7.25;;;23.80;99.90;;;;;;5051621;28;20408;-79
2022/07/25 06:59:14;;;;;;;11.15;6.80;;;23.90;99.90;;;;;;5050395;28;20465;-79
2022/07/25 07:01:58;;;;;;;11.60;7.03;;;24.00;99.90;;;;;;5058786;28;20388;-78
2022/07/25 07:04:42;;;;;;;14.45;6.68;;;24.10;99.90;;;;;;5048418;28;20455;-78
2022/07/25 07:07:26;;;;;;;10.03;6.80;;;24.10;99.90;;;;;;5049144;28;20398;-79
2022/07/25 07:10:10;;;;;;;11.07;6.50;;;24.10;99.90;;;;;;5052704;28;20427;-78
2022/07/25 07:13:06;;;;;;;9.80;7.10;;;24.10;99.90;;;;;;5056161;28;20887;-78
2022/07/25 07:15:51;;;;;;;14.32;6.85;;;24.20;99.90;;;;;;5050296;28;20420;-78
2022/07/25 07:18:36;;;;;;;9.05;6.82;;;24.30;99.90;;;;;;5050719;28;20493;-78
2022/07/25 07:21:20;;;;;;;9.68;6.80;;;24.30;99.90;;;;;;5050410;28;20398;-78
2022/07/25 07:24:04;;;;;;;9.60;6.75;;;24.40;99.90;;;;;;5056213;28;20391;-79
2022/07/25 07:26:49;;;;;;;7.70;6.88;;;24.40;99.90;;;;;;5052989;28;20473;-77
2022/07/25 07:29:33;;;;;;;7.93;6.40;;;24.50;99.90;;;;;;5053760;28;20385;-79
2022/07/25 07:32:17;;;;;;;10.60;6.53;;;24.60;99.90;;;;;;5049045;28;20441;-78
2022/07/25 07:35:01;;;;;;;13.88;6.90;;;24.70;99.90;;;;;;5055884;28;20472;-79
2022/07/25 07:37:45;;;;;;;9.63;6.13;;;24.80;99.90;;;;;;5061261;28;20399;-78
2022/07/25 07:40:29;;;;;;;10.85;6.70;;;25.00;99.90;;;;;;5055053;28;20437;-79
2022/07/25 07:43:14;;;;;;;9.38;6.20;;;25.10;99.90;;;;;;5057556;28;20402;-78
2022/07/25 07:46:01;;;;;;;10.07;6.22;;;25.20;99.90;;;;;;5053898;28;20399;-78
2022/07/25 07:48:45;;;;;;;12.45;6.22;;;25.40;99.90;;;;;;5057451;28;20426;-78
2022/07/25 07:51:29;;;;;;;9.25;6.22;;;25.50;99.90;;;;;;5054069;28;20444;-79
2022/07/25 07:57:17;;;;;;;9.77;6.50;;;25.60;99.90;;;;;;5049355;28;20399;-78
2022/07/25 08:00:02;;;;;;;7.63;6.00;;;25.80;99.90;;;;;;5053912;28;20403;-78
2022/07/25 08:02:49;;;;;;;8.38;5.68;;;25.90;99.90;;;;;;5056704;28;20415;-77
2022/07/25 08:05:38;;;;;;;6.75;5.40;;;26.10;99.90;;;;;;5056779;28;20414;-78
2022/07/25 08:08:22;;;;;;;7.40;5.45;;;26.30;99.90;;;;;;5046685;28;20432;-77
2022/07/25 08:11:06;;;;;;;6.07;5.35;;;26.40;99.90;;;;;;5050194;28;20466;-78
2022/07/25 08:13:51;;;;;;;6.70;5.60;;;26.60;99.90;;;;;;5047312;28;20528;-78
2022/07/25 08:16:35;;;;;;;8.18;5.65;;;26.60;99.90;;;;;;5061504;28;20964;-78
2022/07/25 08:19:19;;;;;;;6.30;5.30;;;26.70;99.90;;;;;;5053183;28;20418;-78
2022/07/25 08:22:03;;;;;;;6.97;5.50;;;26.90;99.90;;;;;;5052889;28;20384;-78
2022/07/25 08:24:47;;;;;;;7.15;5.10;;;27.10;99.90;;;;;;5063113;28;20396;-78
2022/07/25 08:27:31;;;;;;;7.90;5.47;;;27.30;99.90;;;;;;5049679;28;20428;-78
2022/07/25 08:30:16;;;;;;;6.70;5.10;;;27.40;99.90;;;;;;5049084;28;20452;-78
2022/07/25 08:33:03;;;;;;;6.40;5.00;;;27.30;99.90;;;;;;5055073;28;20388;-78
2022/07/25 08:35:53;;;;;;;5.65;5.05;;;27.30;99.90;;;;;;5059298;28;20426;-78
2022/07/25 08:38:37;;;;;;;5.97;5.27;;;27.30;99.90;;;;;;5053271;28;20401;-78
2022/07/25 08:41:22;;;;;;;6.40;5.32;;;27.40;99.90;;;;;;5041331;28;20392;-78
2022/07/25 08:44:08;;;;;;;5.93;4.95;;;27.40;99.90;;;;;;5062225;28;20465;-78
2022/07/25 08:46:53;;;;;;;5.40;4.90;;;27.40;99.90;;;;;;5056975;28;20388;-78
2022/07/25 08:49:37;;;;;;;8.15;4.90;;;27.50;99.90;;;;;;5049331;28;20410;-77
2022/07/25 08:52:22;;;;;;;5.82;5.07;;;27.60;99.90;;;;;;5049401;28;20764;-78
2022/07/25 08:55:09;;;;;;;6.05;4.82;;;27.60;99.90;;;;;;5056309;28;20501;-78
2022/07/25 08:57:53;;;;;;;5.80;4.82;;;27.70;99.90;;;;;;5053320;28;20392;-78
2022/07/25 09:00:38;;;;;;;5.78;5.13;;;27.70;99.90;;;;;;5045144;28;20428;-78
2022/07/25 09:03:22;;;;;;;5.93;4.90;;;27.80;99.90;;;;;;5045870;28;20410;-78
2022/07/25 09:06:18;;;;;;;5.43;4.90;;;27.90;99.90;;;;;;5046044;28;20463;-77
2022/07/25 09:09:04;;;;;;;6.22;4.85;;;28.00;99.90;;;;;;5054654;28;20455;-77
2022/07/25 09:11:49;;;;;;;5.43;4.90;;;28.00;99.90;;;;;;5049769;28;21022;-77
2022/07/25 09:14:43;;;;;;;6.20;4.93;;;28.10;99.90;;;;;;5055371;28;20394;-78
2022/07/25 09:17:27;;;;;;;7.00;4.95;;;28.10;99.90;;;;;;5057215;28;20502;-78
2022/07/25 09:20:11;;;;;;;6.07;4.70;;;28.20;99.90;;;;;;5049341;28;20394;-77
2022/07/25 09:22:56;;;;;;;6.40;4.80;;;28.20;99.90;;;;;;5053475;28;20429;-78
2022/07/25 09:25:41;;;;;;;5.03;4.53;;;28.20;99.90;;;;;;5062794;28;20391;-78
2022/07/25 09:28:25;;;;;;;5.93;4.65;;;28.30;99.90;;;;;;5059440;28;20453;-78
2022/07/25 09:31:09;;;;;;;5.07;4.53;;;28.20;99.90;;;;;;5055375;28;20390;-78
2022/07/25 09:33:59;;;;;;;6.88;5.05;;;28.20;99.90;;;;;;5054010;28;20444;-77
2022/07/25 09:36:55;;;;;;;5.32;4.85;;;28.30;99.90;;;;;;5055567;28;20911;-77
2022/07/25 09:39:48;;;;;;;5.43;4.75;;;28.30;99.90;;;;;;5043939;28;20460;-78
2022/07/25 09:42:32;;;;;;;6.50;4.65;;;28.30;99.90;;;;;;5047008;28;20398;-77
2022/07/25 09:45:16;;;;;;;9.95;4.72;;;28.30;99.90;;;;;;5053760;28;20387;-77
2022/07/25 09:48:04;;;;;;;6.60;4.78;;;28.30;99.90;;;;;;5053614;28;20402;-78
2022/07/25 09:50:49;;;;;;;5.63;4.73;;;28.30;99.90;;;;;;5053309;28;20404;-77
2022/07/25 09:53:33;;;;;;;7.28;4.80;;;28.30;99.90;;;;;;5052081;28;20412;-77
2022/07/25 09:56:18;;;;;;;5.63;4.53;;;28.30;99.90;;;;;;5054673;28;20515;-77
2022/07/25 09:59:03;;;;;;;5.80;4.75;;;28.50;99.90;;;;;;5060521;28;20400;-77
2022/07/25 10:01:59;;;;;;;7.75;4.90;;;28.60;99.90;;;;;;5045135;28;20434;-78
2022/07/25 10:05:04;;;;;;;6.43;4.90;;;28.80;99.90;;;;;;5049967;28;20446;-77
2022/07/25 10:07:52;;;;;;;6.60;4.90;;;28.90;99.90;;;;;;5044258;28;20444;-77
2022/07/25 10:10:39;;;;;;;7.25;4.93;;;28.90;99.90;;;;;;5063027;28;20412;-77
2022/07/25 10:13:33;;;;;;;5.45;4.85;;;29.00;99.90;;;;;;5046097;28;20475;-77
2022/07/25 10:16:23;;;;;;;5.57;4.80;;;29.20;99.90;;;;;;5048846;28;20468;-77
2022/07/25 10:19:07;;;;;;;8.50;5.00;;;29.20;99.90;;;;;;5047020;28;20941;-78
2022/07/25 10:21:54;;;;;;;7.22;4.82;;;29.20;99.90;;;;;;5049984;28;20817;-77
2022/07/25 10:24:43;;;;;;;6.80;4.55;;;29.20;99.90;;;;;;5050517;28;20458;-77
2022/07/25 10:27:28;;;;;;;7.38;4.80;;;29.30;99.90;;;;;;5056017;28;20488;-77
2022/07/25 10:30:23;;;;;;;5.45;4.80;;;29.30;99.90;;;;;;5055289;28;20454;-77
2022/07/25 10:33:14;;;;;;;5.20;4.70;;;29.40;99.90;;;;;;5051519;28;20461;-77
2022/07/25 10:36:06;;;;;;;5.57;4.77;;;29.30;99.90;;;;;;5056571;28;20419;-78
2022/07/25 10:38:52;;;;;;;5.40;4.82;;;29.30;99.90;;;;;;5049261;28;20406;-77
2022/07/25 10:41:41;;;;;;;7.53;5.30;;;29.20;99.90;;;;;;5057566;28;20435;-79
2022/07/25 10:44:37;;;;;;;5.47;4.97;;;29.30;99.90;;;;;;5055356;28;20382;-77
2022/07/25 10:47:25;;;;;;;7.20;5.27;;;29.30;99.90;;;;;;5049328;28;20392;-79
2022/07/25 10:50:10;;;;;;;6.03;5.20;;;29.40;99.90;;;;;;5063780;28;20965;-77
2022/07/25 10:52:59;;;;;;;6.03;4.80;;;29.40;99.90;;;;;;5057761;28;20803;-77
2022/07/25 10:55:47;;;;;;;7.75;5.10;;;29.50;99.90;;;;;;5053493;28;20450;-77
2022/07/25 10:58:48;;;;;;;7.53;5.20;;;29.60;99.90;;;;;;5059275;28;20447;-77
2022/07/25 11:01:36;;;;;;;6.80;4.85;;;29.60;99.90;;;;;;5044843;28;20390;-79
2022/07/25 11:04:20;;;;;;;7.63;5.38;;;29.70;99.90;;;;;;5050671;28;20545;-78
2022/07/25 11:07:16;;;;;;;7.83;5.57;;;29.70;99.90;;;;;;5049494;28;20389;-77
2022/07/25 11:10:03;;;;;;;6.90;5.18;;;29.70;99.90;;;;;;5046678;28;20404;-79
2022/07/25 11:12:47;;;;;;;6.00;4.80;;;29.70;99.90;;;;;;5040014;28;20405;-79
2022/07/25 11:15:32;;;;;;;6.20;5.15;;;29.70;99.90;;;;;;5055985;28;20539;-79
2022/07/25 11:18:17;;;;;;;7.22;5.32;;;29.70;99.90;;;;;;5061791;28;20393;-79
2022/07/25 11:21:04;;;;;;;6.25;5.65;;;29.60;99.90;;;;;;5050308;28;20754;-79
2022/07/25 11:23:50;;;;;;;7.22;5.32;;;29.60;99.90;;;;;;5059653;28;20474;-79
2022/07/25 11:26:47;;;;;;;7.60;5.30;;;29.50;99.90;;;;;;5055948;28;20396;-80
2022/07/25 11:29:33;;;;;;;7.97;5.47;;;29.60;99.90;;;;;;5046182;28;20415;-80
2022/07/25 11:32:17;;;;;;;8.80;5.40;;;29.60;99.90;;;;;;5068284;28;20414;-79
2022/07/25 11:35:01;;;;;;;6.13;5.50;;;29.60;99.90;;;;;;5055029;28;20467;-77
2022/07/25 11:37:47;;;;;;;5.75;5.22;;;29.60;99.90;;;;;;5055156;28;20392;-77
2022/07/25 11:40:32;;;;;;;7.82;5.40;;;29.70;99.90;;;;;;5057258;28;20407;-77
2022/07/25 11:43:21;;;;;;;6.15;5.55;;;29.70;99.90;;;;;;5056611;28;20406;-77
2022/07/25 11:46:06;;;;;;;7.22;5.20;;;29.70;99.90;;;;;;5057204;28;20396;-79
2022/07/25 11:48:50;;;;;;;7.10;5.47;;;29.80;99.90;;;;;;5057512;28;20415;-79
2022/07/25 11:51:38;;;;;;;7.10;5.60;;;29.80;99.90;;;;;;5053646;28;20404;-79
2022/07/25 11:54:22;;;;;;;6.10;5.38;;;29.80;99.90;;;;;;5044885;28;20431;-80
2022/07/25 11:57:07;;;;;;;6.43;5.57;;;29.80;99.90;;;;;;5056319;28;20450;-79
2022/07/25 11:59:53;;;;;;;6.90;5.78;;;29.90;99.90;;;;;;5056377;28;20385;-80
2022/07/25 12:02:37;;;;;;;6.43;5.78;;;29.90;99.90;;;;;;5060435;28;20439;-79
2022/07/25 12:05:31;;;;;;;6.85;5.55;;;29.90;99.90;;;;;;5047543;28;20804;-79
2022/07/25 12:08:21;;;;;;;7.90;5.80;;;30.00;99.90;;;;;;5065621;28;20448;-80
2022/07/25 12:11:20;;;;;;;7.93;5.78;;;30.00;99.90;;;;;;5046517;28;20430;-79
2022/07/25 12:14:05;;;;;;;11.17;6.20;;;30.10;99.90;;;;;;5058556;28;20908;-80
2022/07/25 12:16:49;;;;;;;7.63;6.20;;;30.10;99.90;;;;;;5062385;28;20380;-80
2022/07/25 12:19:33;;;;;;;7.73;6.33;;;30.20;99.90;;;;;;5062005;28;20393;-79
2022/07/25 12:22:17;;;;;;;9.35;6.57;;;30.20;99.90;;;;;;5045149;28;20406;-79
2022/07/25 12:25:01;;;;;;;7.97;6.75;;;30.20;99.90;;;;;;5061859;28;20400;-79
2022/07/25 12:27:46;;;;;;;8.63;7.20;;;30.20;99.90;;;;;;5045499;28;20431;-79
2022/07/25 12:30:32;;;;;;;9.52;7.70;;;30.10;99.90;;;;;;5060098;28;20402;-79
2022/07/25 12:33:16;;;;;;;11.80;8.85;;;30.00;99.90;;;;;;5054424;28;20408;-79
2022/07/25 12:36:01;;;;;;;12.00;9.90;;;29.90;99.90;;;;;;5060367;28;20438;-79
2022/07/25 12:38:46;;;;;;;12.32;9.38;;;29.70;99.90;;;;;;5051887;28;20391;-79
2022/07/25 12:41:30;;;;;;;11.82;10.63;;;29.60;99.90;;;;;;5049740;28;20444;-79
2022/07/25 12:44:14;;;;;;;15.38;9.80;;;29.50;99.90;;;;;;5061911;28;20437;-79
2022/07/25 12:46:58;;;;;;;11.18;9.18;;;29.40;99.90;;;;;;5052990;28;20389;-77
2022/07/25 12:49:42;;;;;;;11.68;8.95;;;29.30;99.90;;;;;;5049626;28;20457;-79
2022/07/25 12:52:26;;;;;;;10.45;9.32;;;29.30;99.90;;;;;;5040161;28;20397;-78
2022/07/25 12:55:16;;;;;;;11.77;8.85;;;29.10;99.90;;;;;;5055354;28;20506;-79
2022/07/25 12:58:00;;;;;;;9.15;7.07;;;28.90;99.90;;;;;;5046228;28;20409;-78
2022/07/25 13:00:45;;;;;;;8.65;5.97;;;28.80;99.90;;;;;;5049482;28;20410;-78
2022/07/25 13:03:29;;;;;;;7.87;5.90;;;28.80;99.90;;;;;;5048217;28;20386;-79
2022/07/25 13:06:13;;;;;;;10.27;5.82;;;28.80;99.90;;;;;;5060894;28;20444;-79
2022/07/25 13:08:58;;;;;;;8.20;5.30;;;28.80;99.90;;;;;;5051904;28;20430;-78
2022/07/25 13:11:42;;;;;;;8.52;5.10;;;28.80;99.90;;;;;;5054020;28;20400;-78
2022/07/25 13:14:27;;;;;;;7.53;5.18;;;28.80;99.90;;;;;;5046993;28;20439;-78
2022/07/25 13:17:11;;;;;;;6.03;4.65;;;28.70;99.90;;;;;;5048615;28;20889;-79
2022/07/25 13:19:55;;;;;;;4.67;4.27;;;28.70;99.90;;;;;;5055459;28;20386;-79
2022/07/25 13:22:40;;;;;;;6.20;4.05;;;28.70;99.90;;;;;;5045710;28;20385;-79
2022/07/25 13:25:24;;;;;;;5.63;3.20;;;28.60;99.90;;;;;;5051610;28;20426;-79
2022/07/25 13:28:08;;;;;;;4.53;3.35;;;28.50;99.90;;;;;;5047273;28;20784;-79
2022/07/25 13:30:52;;;;;;;8.02;3.45;;;28.40;99.90;;;;;;5054481;28;20420;-79
2022/07/25 13:33:36;;;;;;;3.40;3.10;;;28.40;99.90;;;;;;5057663;28;20394;-79
2022/07/25 13:36:20;;;;;;;4.90;2.95;;;28.30;99.90;;;;;;5048955;28;20424;-79
2022/07/25 13:39:05;;;;;;;9.75;3.28;;;28.30;99.90;;;;;;5053187;28;20389;-79
2022/07/25 13:41:49;;;;;;;5.75;3.38;;;28.30;99.90;;;;;;5056940;28;20404;-79
2022/07/25 13:44:33;;;;;;;5.60;3.55;;;28.20;99.90;;;;;;5062543;28;20817;-79
2022/07/25 13:47:17;;;;;;;5.53;3.60;;;28.10;99.90;;;;;;5054775;28;20424;-78
2022/07/25 13:50:01;;;;;;;5.15;3.60;;;28.00;99.90;;;;;;5062797;28;20435;-79
2022/07/25 13:52:46;;;;;;;7.97;4.05;;;27.80;99.90;;;;;;5061272;28;20433;-79
2022/07/25 13:55:30;;;;;;;5.22;3.83;;;27.70;99.90;;;;;;5057319;28;20423;-79
2022/07/25 13:58:15;;;;;;;6.30;3.75;;;27.60;99.90;;;;;;5048892;28;20481;-79
2022/07/25 14:00:59;;;;;;;7.13;4.10;;;27.30;99.90;;;;;;5063415;28;20437;-79
2022/07/25 14:03:43;;;;;;;7.03;4.10;;;27.10;99.90;;;;;;5054511;28;20789;-79
2022/07/25 14:06:27;;;;;;;5.28;3.75;;;26.90;99.90;;;;;;5054526;28;20474;-79
2022/07/25 14:09:11;;;;;;;7.80;3.90;;;26.70;99.90;;;;;;5047100;28;20399;-78
2022/07/25 14:11:55;;;;;;;5.80;3.90;;;26.50;99.90;;;;;;5050914;28;20453;-79
2022/07/25 14:14:39;;;;;;;5.18;3.50;;;26.40;99.90;;;;;;5055444;28;20404;-79
2022/07/25 14:17:23;;;;;;;6.43;3.65;;;26.30;99.90;;;;;;5050549;28;20378;-79
2022/07/25 14:20:08;;;;;;;5.47;3.38;;;26.30;99.90;;;;;;5054148;28;20452;-79
2022/07/25 14:22:52;;;;;;;5.30;2.90;;;26.40;99.90;;;;;;5065924;28;20950;-79